sensor_id;sensor_type;location;lat;lon;timestamp;temperature;humidity
34873;DHT22;21084;51.098;14.506;2022-12-29T00:01:11;7.00;99.90
34873;DHT22;21084;51.098;14.506;2022-12-29T00:03:41;6.90;99.90
34873;DHT22;21084;51.098;14.506;2022-12-29T00:06:10;6.90;99.90
34873;DHT22;21084;51.098;14.506;2022-12-29T00:08:38;6.80;99.90
34873;DHT22;21084;51.098;14.506;2022-12-29T00:11:11;6.80;99.90
34873;DHT22;21084;51.098;14.506;2022-12-29T00:13:40;6.80;99.90
34873;DHT22;21084;51.098;14.506;2022-12-29T00:16:26;6.80;99.90
34873;DHT22;21084;51.098;14.506;2022-12-29T00:18:57;6.90;99.90
34873;DHT22;21084;51.098;14.506;2022-12-29T00:21:26;6.90;99.90
34873;DHT22;21084;51.098;14.506;2022-12-29T00:24:14;6.90;99.90
34873;DHT22;21084;51.098;14.506;2022-12-29T00:27:10;7.00;99.90
34873;DHT22;21084;51.098;14.506;2022-12-29T00:29:57;6.90;99.90
34873;DHT22;21084;51.098;14.506;2022-12-29T00:32:44;6.80;99.90
34873;DHT22;21084;51.098;14.506;2022-12-29T00:35:34;6.90;99.90
34873;DHT22;21084;51.098;14.506;2022-12-29T00:38:05;6.80;99.90
34873;DHT22;21084;51.098;14.506;2022-12-29T00:40:53;6.70;99.90
34873;DHT22;21084;51.098;14.506;2022-12-29T00:43:38;6.80;99.90
34873;DHT22;21084;51.098;14.506;2022-12-29T00:46:24;6.90;99.90
34873;DHT22;21084;51.098;14.506;2022-12-29T00:48:53;6.90;99.90
34873;DHT22;21084;51.098;14.506;2022-12-29T00:51:41;7.00;99.90
34873;DHT22;21084;51.098;14.506;2022-12-29T00:54:10;7.00;99.90
34873;DHT22;21084;51.098;14.506;2022-12-29T00:56:40;6.90;99.90
34873;DHT22;21084;51.098;14.506;2022-12-29T00:59:10;6.90;99.90
34873;DHT22;21084;51.098;14.506;2022-12-29T01:01:39;6.90;99.90
34873;DHT22;21084;51.098;14.506;2022-12-29T01:04:08;6.90;99.90
34873;DHT22;21084;51.098;14.506;2022-12-29T01:06:38;7.00;99.90
34873;DHT22;21084;51.098;14.506;2022-12-29T01:09:08;7.00;99.90
34873;DHT22;21084;51.098;14.506;2022-12-29T01:11:54;7.00;99.90
34873;DHT22;21084;51.098;14.506;2022-12-29T01:14:23;7.00;99.90
34873;DHT22;21084;51.098;14.506;2022-12-29T01:16:52;7.00;99.90
34873;DHT22;21084;51.098;14.506;2022-12-29T01:19:20;6.90;99.90
34873;DHT22;21084;51.098;14.506;2022-12-29T01:21:49;6.90;99.90
34873;DHT22;21084;51.098;14.506;2022-12-29T01:24:20;6.80;99.90
34873;DHT22;21084;51.098;14.506;2022-12-29T01:26:50;6.70;99.90
34873;DHT22;21084;51.098;14.506;2022-12-29T01:29:18;6.60;99.90
34873;DHT22;21084;51.098;14.506;2022-12-29T01:31:46;6.60;99.90
34873;DHT22;21084;51.098;14.506;2022-12-29T01:34:17;6.50;99.90
34873;DHT22;21084;51.098;14.506;2022-12-29T01:36:46;6.50;99.90
34873;DHT22;21084;51.098;14.506;2022-12-29T01:39:14;6.40;99.90
34873;DHT22;21084;51.098;14.506;2022-12-29T01:41:44;6.40;99.90
34873;DHT22;21084;51.098;14.506;2022-12-29T01:44:47;6.30;99.90
34873;DHT22;21084;51.098;14.506;2022-12-29T01:47:21;6.30;99.90
34873;DHT22;21084;51.098;14.506;2022-12-29T01:49:52;6.30;99.90
34873;DHT22;21084;51.098;14.506;2022-12-29T01:52:23;6.10;99.90
34873;DHT22;21084;51.098;14.506;2022-12-29T01:54:54;6.10;99.90
34873;DHT22;21084;51.098;14.506;2022-12-29T01:57:27;6.10;99.90
34873;DHT22;21084;51.098;14.506;2022-12-29T02:00:00;6.00;99.90
34873;DHT22;21084;51.098;14.506;2022-12-29T02:02:31;6.00;99.90
34873;DHT22;21084;51.098;14.506;2022-12-29T02:05:03;5.90;99.90
34873;DHT22;21084;51.098;14.506;2022-12-29T02:07:33;5.90;99.90
34873;DHT22;21084;51.098;14.506;2022-12-29T02:10:02;5.90;99.90
34873;DHT22;21084;51.098;14.506;2022-12-29T02:12:33;5.80;99.90
34873;DHT22;21084;51.098;14.506;2022-12-29T02:15:03;5.80;99.90
34873;DHT22;21084;51.098;14.506;2022-12-29T02:17:45;5.80;99.90
34873;DHT22;21084;51.098;14.506;2022-12-29T02:20:53;5.80;99.90
34873;DHT22;21084;51.098;14.506;2022-12-29T02:23:42;5.80;99.90
34873;DHT22;21084;51.098;14.506;2022-12-29T02:26:42;5.80;99.90
34873;DHT22;21084;51.098;14.506;2022-12-29T02:29:46;5.90;99.90
34873;DHT22;21084;51.098;14.506;2022-12-29T02:32:25;5.90;99.90
34873;DHT22;21084;51.098;14.506;2022-12-29T02:35:03;5.90;99.90
34873;DHT22;21084;51.098;14.506;2022-12-29T02:37:41;6.00;99.90
34873;DHT22;21084;51.098;14.506;2022-12-29T02:40:17;6.00;99.90
34873;DHT22;21084;51.098;14.506;2022-12-29T02:42:58;6.00;99.90
34873;DHT22;21084;51.098;14.506;2022-12-29T02:45:32;6.00;99.90
34873;DHT22;21084;51.098;14.506;2022-12-29T02:48:10;6.00;99.90
34873;DHT22;21084;51.098;14.506;2022-12-29T02:50:50;6.00;99.90
34873;DHT22;21084;51.098;14.506;2022-12-29T02:53:21;6.00;99.90
34873;DHT22;21084;51.098;14.506;2022-12-29T02:56:10;5.90;99.90
34873;DHT22;21084;51.098;14.506;2022-12-29T02:58:38;5.90;99.90
34873;DHT22;21084;51.098;14.506;2022-12-29T03:01:29;5.90;99.90
34873;DHT22;21084;51.098;14.506;2022-12-29T03:04:14;5.90;99.90
34873;DHT22;21084;51.098;14.506;2022-12-29T03:06:54;5.90;99.90
34873;DHT22;21084;51.098;14.506;2022-12-29T03:09:34;6.00;99.90
34873;DHT22;21084;51.098;14.506;2022-12-29T03:12:13;5.90;99.90
34873;DHT22;21084;51.098;14.506;2022-12-29T03:14:55;5.90;99.90
34873;DHT22;21084;51.098;14.506;2022-12-29T03:17:51;5.90;99.90
34873;DHT22;21084;51.098;14.506;2022-12-29T03:20:24;5.90;99.90
34873;DHT22;21084;51.098;14.506;2022-12-29T03:22:59;6.00;99.90
34873;DHT22;21084;51.098;14.506;2022-12-29T03:25:30;6.00;99.90
34873;DHT22;21084;51.098;14.506;2022-12-29T03:28:02;6.00;99.90
34873;DHT22;21084;51.098;14.506;2022-12-29T03:30:34;6.00;99.90
34873;DHT22;21084;51.098;14.506;2022-12-29T03:33:08;6.00;99.90
34873;DHT22;21084;51.098;14.506;2022-12-29T03:35:41;6.10;99.90
34873;DHT22;21084;51.098;14.506;2022-12-29T03:38:16;6.20;99.90
34873;DHT22;21084;51.098;14.506;2022-12-29T03:40:48;6.10;99.90
34873;DHT22;21084;51.098;14.506;2022-12-29T03:43:18;6.10;99.90
34873;DHT22;21084;51.098;14.506;2022-12-29T03:45:47;6.20;99.90
34873;DHT22;21084;51.098;14.506;2022-12-29T03:48:15;6.30;99.90
34873;DHT22;21084;51.098;14.506;2022-12-29T03:50:45;6.30;99.90
34873;DHT22;21084;51.098;14.506;2022-12-29T03:53:14;6.40;99.90
34873;DHT22;21084;51.098;14.506;2022-12-29T03:55:42;6.30;99.90
34873;DHT22;21084;51.098;14.506;2022-12-29T03:58:11;6.30;99.90
34873;DHT22;21084;51.098;14.506;2022-12-29T04:00:40;6.30;99.90
34873;DHT22;21084;51.098;14.506;2022-12-29T04:03:08;6.30;99.90
34873;DHT22;21084;51.098;14.506;2022-12-29T04:05:37;6.40;99.90
34873;DHT22;21084;51.098;14.506;2022-12-29T04:08:08;6.40;99.90
34873;DHT22;21084;51.098;14.506;2022-12-29T04:10:36;6.40;99.90
34873;DHT22;21084;51.098;14.506;2022-12-29T04:13:05;6.50;99.90
34873;DHT22;21084;51.098;14.506;2022-12-29T04:15:34;6.60;99.90
34873;DHT22;21084;51.098;14.506;2022-12-29T04:18:03;6.50;99.90
34873;DHT22;21084;51.098;14.506;2022-12-29T04:20:31;6.60;99.90
34873;DHT22;21084;51.098;14.506;2022-12-29T04:23:18;6.60;99.90
34873;DHT22;21084;51.098;14.506;2022-12-29T04:25:47;6.50;99.90
34873;DHT22;21084;51.098;14.506;2022-12-29T04:28:16;6.60;99.90
34873;DHT22;21084;51.098;14.506;2022-12-29T04:30:45;6.60;99.90
34873;DHT22;21084;51.098;14.506;2022-12-29T04:33:14;6.60;99.90
34873;DHT22;21084;51.098;14.506;2022-12-29T04:35:45;6.60;99.90
34873;DHT22;21084;51.098;14.506;2022-12-29T04:38:13;6.70;99.90
34873;DHT22;21084;51.098;14.506;2022-12-29T04:40:45;6.60;99.90
34873;DHT22;21084;51.098;14.506;2022-12-29T04:43:13;6.80;99.90
34873;DHT22;21084;51.098;14.506;2022-12-29T04:45:45;6.80;99.90
34873;DHT22;21084;51.098;14.506;2022-12-29T04:48:13;6.70;99.90
34873;DHT22;21084;51.098;14.506;2022-12-29T04:50:42;6.80;99.90
34873;DHT22;21084;51.098;14.506;2022-12-29T04:53:10;6.90;99.90
34873;DHT22;21084;51.098;14.506;2022-12-29T04:55:39;7.00;99.90
34873;DHT22;21084;51.098;14.506;2022-12-29T04:58:09;7.10;99.90
34873;DHT22;21084;51.098;14.506;2022-12-29T05:00:43;7.10;99.90
34873;DHT22;21084;51.098;14.506;2022-12-29T05:03:12;7.10;99.90
34873;DHT22;21084;51.098;14.506;2022-12-29T05:05:41;7.10;99.90
34873;DHT22;21084;51.098;14.506;2022-12-29T05:08:09;7.10;99.90
34873;DHT22;21084;51.098;14.506;2022-12-29T05:10:38;7.00;99.90
34873;DHT22;21084;51.098;14.506;2022-12-29T05:13:08;7.10;99.90
34873;DHT22;21084;51.098;14.506;2022-12-29T05:15:37;7.00;99.90
34873;DHT22;21084;51.098;14.506;2022-12-29T05:18:05;7.00;99.90
34873;DHT22;21084;51.098;14.506;2022-12-29T05:20:34;7.00;99.90
34873;DHT22;21084;51.098;14.506;2022-12-29T05:23:03;6.90;99.90
34873;DHT22;21084;51.098;14.506;2022-12-29T05:25:31;6.90;99.90
34873;DHT22;21084;51.098;14.506;2022-12-29T05:28:00;6.90;99.90
34873;DHT22;21084;51.098;14.506;2022-12-29T05:30:30;6.90;99.90
34873;DHT22;21084;51.098;14.506;2022-12-29T05:32:58;6.80;99.90
34873;DHT22;21084;51.098;14.506;2022-12-29T05:35:27;6.90;99.90
34873;DHT22;21084;51.098;14.506;2022-12-29T05:37:55;6.90;99.90
34873;DHT22;21084;51.098;14.506;2022-12-29T05:40:24;7.00;99.90
34873;DHT22;21084;51.098;14.506;2022-12-29T05:42:52;7.10;99.90
34873;DHT22;21084;51.098;14.506;2022-12-29T05:45:21;7.10;99.90
34873;DHT22;21084;51.098;14.506;2022-12-29T05:47:51;7.10;99.90
34873;DHT22;21084;51.098;14.506;2022-12-29T05:50:19;7.20;99.90
34873;DHT22;21084;51.098;14.506;2022-12-29T05:52:48;7.20;99.90
34873;DHT22;21084;51.098;14.506;2022-12-29T05:55:16;7.20;99.90
34873;DHT22;21084;51.098;14.506;2022-12-29T05:57:45;7.10;99.90
34873;DHT22;21084;51.098;14.506;2022-12-29T06:00:14;7.10;99.90
34873;DHT22;21084;51.098;14.506;2022-12-29T06:02:43;7.10;99.90
34873;DHT22;21084;51.098;14.506;2022-12-29T06:05:13;7.10;99.90
34873;DHT22;21084;51.098;14.506;2022-12-29T06:07:42;7.10;99.90
34873;DHT22;21084;51.098;14.506;2022-12-29T06:10:11;7.10;99.90
34873;DHT22;21084;51.098;14.506;2022-12-29T06:12:40;7.00;99.90
34873;DHT22;21084;51.098;14.506;2022-12-29T06:15:09;6.90;99.90
34873;DHT22;21084;51.098;14.506;2022-12-29T06:17:38;6.90;99.90
34873;DHT22;21084;51.098;14.506;2022-12-29T06:20:08;6.90;99.90
34873;DHT22;21084;51.098;14.506;2022-12-29T06:22:38;6.90;99.90
34873;DHT22;21084;51.098;14.506;2022-12-29T06:25:06;6.90;99.90
34873;DHT22;21084;51.098;14.506;2022-12-29T06:27:35;6.90;99.90
34873;DHT22;21084;51.098;14.506;2022-12-29T06:30:05;7.00;99.90
34873;DHT22;21084;51.098;14.506;2022-12-29T06:32:33;7.00;99.90
34873;DHT22;21084;51.098;14.506;2022-12-29T06:35:02;7.10;99.90
34873;DHT22;21084;51.098;14.506;2022-12-29T06:37:30;7.20;99.90
34873;DHT22;21084;51.098;14.506;2022-12-29T06:40:01;7.10;99.90
34873;DHT22;21084;51.098;14.506;2022-12-29T06:42:30;7.20;99.90
34873;DHT22;21084;51.098;14.506;2022-12-29T06:44:58;7.10;99.90
34873;DHT22;21084;51.098;14.506;2022-12-29T06:47:27;7.00;99.90
34873;DHT22;21084;51.098;14.506;2022-12-29T06:49:56;7.00;99.90
34873;DHT22;21084;51.098;14.506;2022-12-29T06:52:24;7.00;99.90
34873;DHT22;21084;51.098;14.506;2022-12-29T06:54:53;7.00;99.90
34873;DHT22;21084;51.098;14.506;2022-12-29T06:57:23;7.00;99.90
34873;DHT22;21084;51.098;14.506;2022-12-29T06:59:53;7.00;99.90
34873;DHT22;21084;51.098;14.506;2022-12-29T07:02:23;6.90;99.90
34873;DHT22;21084;51.098;14.506;2022-12-29T07:04:53;6.90;99.90
34873;DHT22;21084;51.098;14.506;2022-12-29T07:07:21;6.90;99.90
34873;DHT22;21084;51.098;14.506;2022-12-29T07:09:50;6.80;99.90
34873;DHT22;21084;51.098;14.506;2022-12-29T07:12:18;6.80;99.90
34873;DHT22;21084;51.098;14.506;2022-12-29T07:14:48;6.70;99.90
34873;DHT22;21084;51.098;14.506;2022-12-29T07:17:17;6.70;99.90
34873;DHT22;21084;51.098;14.506;2022-12-29T07:19:46;6.70;99.90
34873;DHT22;21084;51.098;14.506;2022-12-29T07:22:14;6.70;99.90
34873;DHT22;21084;51.098;14.506;2022-12-29T07:24:43;6.60;99.90
34873;DHT22;21084;51.098;14.506;2022-12-29T07:27:11;6.60;99.90
34873;DHT22;21084;51.098;14.506;2022-12-29T07:29:40;6.40;99.90
34873;DHT22;21084;51.098;14.506;2022-12-29T07:32:10;6.50;99.90
34873;DHT22;21084;51.098;14.506;2022-12-29T07:34:39;6.50;99.90
34873;DHT22;21084;51.098;14.506;2022-12-29T07:37:07;6.50;99.90
34873;DHT22;21084;51.098;14.506;2022-12-29T07:39:36;6.40;99.90
34873;DHT22;21084;51.098;14.506;2022-12-29T07:42:04;6.40;99.90
34873;DHT22;21084;51.098;14.506;2022-12-29T07:44:33;6.50;99.90
34873;DHT22;21084;51.098;14.506;2022-12-29T07:47:01;6.60;99.90
34873;DHT22;21084;51.098;14.506;2022-12-29T07:49:31;6.70;99.90
34873;DHT22;21084;51.098;14.506;2022-12-29T07:52:00;6.80;99.90
34873;DHT22;21084;51.098;14.506;2022-12-29T07:54:28;6.80;99.90
34873;DHT22;21084;51.098;14.506;2022-12-29T07:56:57;6.70;99.90
34873;DHT22;21084;51.098;14.506;2022-12-29T07:59:27;6.80;99.90
34873;DHT22;21084;51.098;14.506;2022-12-29T08:01:55;6.70;99.90
34873;DHT22;21084;51.098;14.506;2022-12-29T08:04:24;6.70;99.90
34873;DHT22;21084;51.098;14.506;2022-12-29T08:06:54;6.70;99.90
34873;DHT22;21084;51.098;14.506;2022-12-29T08:09:22;6.80;99.90
34873;DHT22;21084;51.098;14.506;2022-12-29T08:11:51;6.90;99.90
34873;DHT22;21084;51.098;14.506;2022-12-29T08:14:19;6.90;99.90
34873;DHT22;21084;51.098;14.506;2022-12-29T08:16:49;6.90;99.90
34873;DHT22;21084;51.098;14.506;2022-12-29T08:19:17;6.90;99.90
34873;DHT22;21084;51.098;14.506;2022-12-29T08:21:46;6.90;99.90
34873;DHT22;21084;51.098;14.506;2022-12-29T08:24:16;7.00;99.90
34873;DHT22;21084;51.098;14.506;2022-12-29T08:26:44;7.00;99.90
34873;DHT22;21084;51.098;14.506;2022-12-29T08:29:12;7.00;99.90
34873;DHT22;21084;51.098;14.506;2022-12-29T08:31:41;7.00;99.90
34873;DHT22;21084;51.098;14.506;2022-12-29T08:34:10;7.10;99.90
34873;DHT22;21084;51.098;14.506;2022-12-29T08:36:38;7.10;99.90
34873;DHT22;21084;51.098;14.506;2022-12-29T08:39:07;7.20;99.90
34873;DHT22;21084;51.098;14.506;2022-12-29T08:41:37;7.30;99.90
34873;DHT22;21084;51.098;14.506;2022-12-29T08:44:06;7.40;99.90
34873;DHT22;21084;51.098;14.506;2022-12-29T08:46:35;7.50;99.90
34873;DHT22;21084;51.098;14.506;2022-12-29T08:49:03;7.50;99.90
34873;DHT22;21084;51.098;14.506;2022-12-29T08:51:32;7.60;99.90
34873;DHT22;21084;51.098;14.506;2022-12-29T08:54:00;7.70;99.90
34873;DHT22;21084;51.098;14.506;2022-12-29T08:56:29;7.80;99.90
34873;DHT22;21084;51.098;14.506;2022-12-29T08:58:59;7.90;99.90
34873;DHT22;21084;51.098;14.506;2022-12-29T09:01:27;8.00;99.90
34873;DHT22;21084;51.098;14.506;2022-12-29T09:03:57;8.10;99.90
34873;DHT22;21084;51.098;14.506;2022-12-29T09:06:44;8.20;99.90
34873;DHT22;21084;51.098;14.506;2022-12-29T09:09:13;8.20;99.90
34873;DHT22;21084;51.098;14.506;2022-12-29T09:11:41;8.30;99.90
34873;DHT22;21084;51.098;14.506;2022-12-29T09:14:12;8.40;99.90
34873;DHT22;21084;51.098;14.506;2022-12-29T09:16:41;8.40;99.90
34873;DHT22;21084;51.098;14.506;2022-12-29T09:19:27;8.50;99.90
34873;DHT22;21084;51.098;14.506;2022-12-29T09:21:55;8.40;99.90
34873;DHT22;21084;51.098;14.506;2022-12-29T09:24:24;8.40;99.90
34873;DHT22;21084;51.098;14.506;2022-12-29T09:26:52;8.40;99.90
34873;DHT22;21084;51.098;14.506;2022-12-29T09:29:22;8.40;99.90
34873;DHT22;21084;51.098;14.506;2022-12-29T09:31:51;8.40;99.90
34873;DHT22;21084;51.098;14.506;2022-12-29T09:34:19;8.30;99.90
34873;DHT22;21084;51.098;14.506;2022-12-29T09:36:48;8.30;99.90
34873;DHT22;21084;51.098;14.506;2022-12-29T09:39:16;8.30;99.90
34873;DHT22;21084;51.098;14.506;2022-12-29T09:41:49;8.30;99.90
34873;DHT22;21084;51.098;14.506;2022-12-29T09:44:27;8.30;99.90
34873;DHT22;21084;51.098;14.506;2022-12-29T09:46:59;8.30;99.90
34873;DHT22;21084;51.098;14.506;2022-12-29T09:49:32;8.30;99.90
34873;DHT22;21084;51.098;14.506;2022-12-29T09:52:05;8.40;99.90
34873;DHT22;21084;51.098;14.506;2022-12-29T09:54:41;8.40;99.90
34873;DHT22;21084;51.098;14.506;2022-12-29T09:57:25;8.40;99.90
34873;DHT22;21084;51.098;14.506;2022-12-29T09:59:59;8.50;99.90
34873;DHT22;21084;51.098;14.506;2022-12-29T10:02:36;8.50;99.90
34873;DHT22;21084;51.098;14.506;2022-12-29T10:05:19;8.50;99.90
34873;DHT22;21084;51.098;14.506;2022-12-29T10:07:54;8.60;99.90
34873;DHT22;21084;51.098;14.506;2022-12-29T10:10:32;8.70;99.90
34873;DHT22;21084;51.098;14.506;2022-12-29T10:13:18;8.70;99.90
34873;DHT22;21084;51.098;14.506;2022-12-29T10:15:58;8.60;99.90
34873;DHT22;21084;51.098;14.506;2022-12-29T10:21:37;8.70;99.90
34873;DHT22;21084;51.098;14.506;2022-12-29T10:24:12;8.70;99.90
34873;DHT22;21084;51.098;14.506;2022-12-29T10:26:42;8.70;99.90
34873;DHT22;21084;51.098;14.506;2022-12-29T10:29:15;8.60;99.90
34873;DHT22;21084;51.098;14.506;2022-12-29T10:31:49;8.60;99.90
34873;DHT22;21084;51.098;14.506;2022-12-29T10:34:21;8.70;99.90
34873;DHT22;21084;51.098;14.506;2022-12-29T10:36:55;8.70;99.90
34873;DHT22;21084;51.098;14.506;2022-12-29T10:39:32;8.70;99.90
34873;DHT22;21084;51.098;14.506;2022-12-29T10:42:09;8.70;99.90
34873;DHT22;21084;51.098;14.506;2022-12-29T10:44:39;8.80;99.90
34873;DHT22;21084;51.098;14.506;2022-12-29T10:47:14;8.90;99.90
34873;DHT22;21084;51.098;14.506;2022-12-29T10:49:45;8.90;99.90
34873;DHT22;21084;51.098;14.506;2022-12-29T10:52:16;8.90;99.90
34873;DHT22;21084;51.098;14.506;2022-12-29T10:54:49;9.00;99.90
34873;DHT22;21084;51.098;14.506;2022-12-29T10:57:25;9.00;99.90
34873;DHT22;21084;51.098;14.506;2022-12-29T10:59:54;9.00;99.90
34873;DHT22;21084;51.098;14.506;2022-12-29T11:02:51;9.10;99.90
34873;DHT22;21084;51.098;14.506;2022-12-29T11:05:26;9.20;99.90
34873;DHT22;21084;51.098;14.506;2022-12-29T11:07:59;9.30;99.90
34873;DHT22;21084;51.098;14.506;2022-12-29T11:10:36;9.40;99.90
34873;DHT22;21084;51.098;14.506;2022-12-29T11:13:11;9.50;99.90
34873;DHT22;21084;51.098;14.506;2022-12-29T11:15:41;9.60;99.90
34873;DHT22;21084;51.098;14.506;2022-12-29T11:18:19;9.60;99.90
34873;DHT22;21084;51.098;14.506;2022-12-29T11:20:49;9.70;99.90
34873;DHT22;21084;51.098;14.506;2022-12-29T11:23:32;9.80;99.90
34873;DHT22;21084;51.098;14.506;2022-12-29T11:26:16;9.90;99.90
34873;DHT22;21084;51.098;14.506;2022-12-29T11:28:47;9.90;99.90
34873;DHT22;21084;51.098;14.506;2022-12-29T11:31:17;9.80;99.90
34873;DHT22;21084;51.098;14.506;2022-12-29T11:33:47;9.80;99.90
34873;DHT22;21084;51.098;14.506;2022-12-29T11:36:17;9.90;99.90
34873;DHT22;21084;51.098;14.506;2022-12-29T11:38:49;10.00;99.90
34873;DHT22;21084;51.098;14.506;2022-12-29T11:41:23;10.10;99.90
34873;DHT22;21084;51.098;14.506;2022-12-29T11:43:53;10.10;99.90
34873;DHT22;21084;51.098;14.506;2022-12-29T11:46:22;10.20;99.90
34873;DHT22;21084;51.098;14.506;2022-12-29T11:48:53;10.20;99.90
34873;DHT22;21084;51.098;14.506;2022-12-29T11:51:27;10.30;99.90
34873;DHT22;21084;51.098;14.506;2022-12-29T11:53:59;10.40;99.90
34873;DHT22;21084;51.098;14.506;2022-12-29T11:56:37;10.40;99.90
34873;DHT22;21084;51.098;14.506;2022-12-29T11:59:34;10.20;99.90
34873;DHT22;21084;51.098;14.506;2022-12-29T12:02:24;10.10;99.90
34873;DHT22;21084;51.098;14.506;2022-12-29T12:05:01;10.20;99.90
34873;DHT22;21084;51.098;14.506;2022-12-29T12:07:38;10.20;99.90
34873;DHT22;21084;51.098;14.506;2022-12-29T12:10:16;10.20;99.90
34873;DHT22;21084;51.098;14.506;2022-12-29T12:12:51;10.20;99.90
34873;DHT22;21084;51.098;14.506;2022-12-29T12:15:22;10.30;99.90
34873;DHT22;21084;51.098;14.506;2022-12-29T12:17:55;10.20;99.90
34873;DHT22;21084;51.098;14.506;2022-12-29T12:20:38;10.30;99.90
34873;DHT22;21084;51.098;14.506;2022-12-29T12:23:13;10.20;99.90
34873;DHT22;21084;51.098;14.506;2022-12-29T12:25:54;10.20;99.90
34873;DHT22;21084;51.098;14.506;2022-12-29T12:28:30;10.20;99.90
34873;DHT22;21084;51.098;14.506;2022-12-29T12:31:06;10.20;99.90
34873;DHT22;21084;51.098;14.506;2022-12-29T12:33:40;10.20;99.90
34873;DHT22;21084;51.098;14.506;2022-12-29T12:36:22;10.20;99.90
34873;DHT22;21084;51.098;14.506;2022-12-29T12:38:59;10.10;99.90
34873;DHT22;21084;51.098;14.506;2022-12-29T12:41:39;10.10;99.90
34873;DHT22;21084;51.098;14.506;2022-12-29T12:44:10;10.10;99.90
34873;DHT22;21084;51.098;14.506;2022-12-29T12:47:00;10.10;99.90
34873;DHT22;21084;51.098;14.506;2022-12-29T12:49:35;10.10;99.90
34873;DHT22;21084;51.098;14.506;2022-12-29T12:52:18;10.10;99.90
34873;DHT22;21084;51.098;14.506;2022-12-29T12:55:05;10.10;99.90
34873;DHT22;21084;51.098;14.506;2022-12-29T12:57:45;10.10;99.90
34873;DHT22;21084;51.098;14.506;2022-12-29T13:00:18;10.10;99.90
34873;DHT22;21084;51.098;14.506;2022-12-29T13:02:59;10.20;99.90
34873;DHT22;21084;51.098;14.506;2022-12-29T13:05:41;10.30;99.90
34873;DHT22;21084;51.098;14.506;2022-12-29T13:08:42;10.40;99.90
34873;DHT22;21084;51.098;14.506;2022-12-29T13:11:21;10.60;99.90
34873;DHT22;21084;51.098;14.506;2022-12-29T13:16:48;10.70;99.90
34873;DHT22;21084;51.098;14.506;2022-12-29T13:19:24;10.80;99.90
34873;DHT22;21084;51.098;14.506;2022-12-29T13:22:03;10.90;99.90
34873;DHT22;21084;51.098;14.506;2022-12-29T13:24:44;11.00;99.90
34873;DHT22;21084;51.098;14.506;2022-12-29T13:27:17;11.10;99.90
34873;DHT22;21084;51.098;14.506;2022-12-29T13:29:57;11.10;99.90
34873;DHT22;21084;51.098;14.506;2022-12-29T13:32:37;11.10;99.90
34873;DHT22;21084;51.098;14.506;2022-12-29T13:35:18;11.20;99.90
34873;DHT22;21084;51.098;14.506;2022-12-29T13:37:54;11.40;99.90
34873;DHT22;21084;51.098;14.506;2022-12-29T13:40:26;11.80;99.90
34873;DHT22;21084;51.098;14.506;2022-12-29T13:42:57;11.60;99.90
34873;DHT22;21084;51.098;14.506;2022-12-29T13:45:29;11.50;99.90
34873;DHT22;21084;51.098;14.506;2022-12-29T13:48:04;11.40;99.90
34873;DHT22;21084;51.098;14.506;2022-12-29T13:50:36;11.20;99.90
34873;DHT22;21084;51.098;14.506;2022-12-29T13:53:11;11.20;99.90
34873;DHT22;21084;51.098;14.506;2022-12-29T13:55:49;11.10;99.90
34873;DHT22;21084;51.098;14.506;2022-12-29T13:58:25;11.60;99.90
34873;DHT22;21084;51.098;14.506;2022-12-29T14:00:58;12.30;99.90
34873;DHT22;21084;51.098;14.506;2022-12-29T14:03:47;12.70;99.90
34873;DHT22;21084;51.098;14.506;2022-12-29T14:06:23;12.30;99.90
34873;DHT22;21084;51.098;14.506;2022-12-29T14:08:54;11.70;99.90
34873;DHT22;21084;51.098;14.506;2022-12-29T14:11:32;11.40;99.90
34873;DHT22;21084;51.098;14.506;2022-12-29T14:14:11;11.10;99.90
34873;DHT22;21084;51.098;14.506;2022-12-29T14:16:40;11.10;99.90
34873;DHT22;21084;51.098;14.506;2022-12-29T14:19:14;11.10;99.90
34873;DHT22;21084;51.098;14.506;2022-12-29T14:21:51;10.90;99.90
34873;DHT22;21084;51.098;14.506;2022-12-29T14:24:38;10.80;99.90
34873;DHT22;21084;51.098;14.506;2022-12-29T14:30:49;10.70;99.90
34873;DHT22;21084;51.098;14.506;2022-12-29T14:33:18;10.60;99.90
34873;DHT22;21084;51.098;14.506;2022-12-29T14:35:48;10.60;99.90
34873;DHT22;21084;51.098;14.506;2022-12-29T14:38:25;10.60;99.90
34873;DHT22;21084;51.098;14.506;2022-12-29T14:41:26;10.50;99.90
34873;DHT22;21084;51.098;14.506;2022-12-29T14:43:58;10.60;99.90
34873;DHT22;21084;51.098;14.506;2022-12-29T14:49:23;10.60;99.90
34873;DHT22;21084;51.098;14.506;2022-12-29T14:51:54;10.50;99.90
34873;DHT22;21084;51.098;14.506;2022-12-29T14:54:50;10.50;99.90
34873;DHT22;21084;51.098;14.506;2022-12-29T14:57:29;10.40;99.90
34873;DHT22;21084;51.098;14.506;2022-12-29T15:00:01;10.50;99.90
34873;DHT22;21084;51.098;14.506;2022-12-29T15:02:36;10.40;99.90
34873;DHT22;21084;51.098;14.506;2022-12-29T15:05:24;10.50;99.90
34873;DHT22;21084;51.098;14.506;2022-12-29T15:07:53;10.50;99.90
34873;DHT22;21084;51.098;14.506;2022-12-29T15:10:24;10.40;99.90
34873;DHT22;21084;51.098;14.506;2022-12-29T15:12:54;10.40;99.90
34873;DHT22;21084;51.098;14.506;2022-12-29T15:15:25;10.50;99.90
34873;DHT22;21084;51.098;14.506;2022-12-29T15:17:54;10.40;99.90
34873;DHT22;21084;51.098;14.506;2022-12-29T15:20:26;10.40;99.90
34873;DHT22;21084;51.098;14.506;2022-12-29T15:22:56;10.50;99.90
34873;DHT22;21084;51.098;14.506;2022-12-29T15:25:26;10.40;99.90
34873;DHT22;21084;51.098;14.506;2022-12-29T15:27:59;10.50;99.90
34873;DHT22;21084;51.098;14.506;2022-12-29T15:30:28;10.50;99.90
34873;DHT22;21084;51.098;14.506;2022-12-29T15:32:57;10.50;99.90
34873;DHT22;21084;51.098;14.506;2022-12-29T15:35:30;10.50;99.90
34873;DHT22;21084;51.098;14.506;2022-12-29T15:37:59;10.40;99.90
34873;DHT22;21084;51.098;14.506;2022-12-29T15:40:31;10.40;99.90
34873;DHT22;21084;51.098;14.506;2022-12-29T15:43:13;10.40;99.90
34873;DHT22;21084;51.098;14.506;2022-12-29T15:45:45;10.40;99.90
34873;DHT22;21084;51.098;14.506;2022-12-29T15:48:17;10.50;99.90
34873;DHT22;21084;51.098;14.506;2022-12-29T15:50:48;10.50;99.90
34873;DHT22;21084;51.098;14.506;2022-12-29T15:53:21;10.50;99.90
34873;DHT22;21084;51.098;14.506;2022-12-29T15:55:57;10.50;99.90
34873;DHT22;21084;51.098;14.506;2022-12-29T15:58:31;10.50;99.90
34873;DHT22;21084;51.098;14.506;2022-12-29T16:01:17;10.50;99.90
34873;DHT22;21084;51.098;14.506;2022-12-29T16:03:46;10.50;99.90
34873;DHT22;21084;51.098;14.506;2022-12-29T16:06:30;10.50;99.90
34873;DHT22;21084;51.098;14.506;2022-12-29T16:09:02;10.40;99.90
34873;DHT22;21084;51.098;14.506;2022-12-29T16:11:34;10.40;99.90
34873;DHT22;21084;51.098;14.506;2022-12-29T16:14:07;10.40;99.90
34873;DHT22;21084;51.098;14.506;2022-12-29T16:16:39;10.30;99.90
34873;DHT22;21084;51.098;14.506;2022-12-29T16:19:13;10.20;99.90